createdAt,value
2017-07-01T14:51:32.532Z,93756.59
2017-07-01T14:54:00.391Z,93756.41
2017-07-01T14:56:28.260Z,93760.27
2017-07-01T14:58:56.173Z,93760.63
2017-07-01T15:01:24.349Z,93767.81
2017-07-01T15:03:53.382Z,93770.54
2017-07-01T15:06:21.320Z,93774.91
2017-07-01T15:08:49.192Z,93781.30
2017-07-01T15:11:17.717Z,93788.37
2017-07-01T15:13:45.819Z,93789.67
2017-07-01T15:16:15.466Z,93789.77
2017-07-01T15:18:43.683Z,93794.50
2017-07-01T15:21:13.074Z,93787.29
2017-07-01T15:23:44.285Z,93791.06
2017-07-01T15:26:13.249Z,93789.53
2017-07-01T15:28:45.574Z,93788.11
2017-07-01T15:31:14.602Z,93783.28
2017-07-01T15:33:42.766Z,93793.42
2017-07-01T15:36:10.907Z,93799.13
2017-07-01T15:38:39.699Z,93793.70
2017-07-01T15:41:11.701Z,93792.52
2017-07-01T15:43:40.600Z,93797.84
2017-07-01T15:46:10.819Z,93803.98
2017-07-01T15:48:39.404Z,93806.86
2017-07-01T15:51:07.363Z,93807.27
2017-07-01T15:53:36.867Z,93808.55
2017-07-01T15:56:06.432Z,93814.95
2017-07-01T15:58:35.731Z,93813.39
2017-07-01T16:01:15.530Z,93821.42
2017-07-01T16:03:43.525Z,93824.63
2017-07-01T16:06:11.534Z,93830.88
2017-07-01T16:08:41.187Z,93836.98
2017-07-01T16:11:11.065Z,93836.53
2017-07-01T16:13:41.441Z,93836.87
2017-07-01T16:16:11.377Z,93834.07
2017-07-01T16:18:44.775Z,93837.16
2017-07-01T16:21:12.965Z,93837.16
2017-07-01T16:23:42.739Z,93836.87
2017-07-01T16:26:10.764Z,93835.37
2017-07-01T16:28:39.450Z,93833.41
2017-07-01T16:31:08.980Z,93842.09
2017-07-01T16:33:41.724Z,93849.17
2017-07-01T16:36:10.554Z,93859.70
2017-07-01T16:38:40.262Z,93867.01
2017-07-01T16:41:08.355Z,93880.34
2017-07-01T16:43:37.459Z,93889.03
2017-07-01T16:46:05.286Z,93902.83
2017-07-01T16:48:36.202Z,93915.55
2017-07-01T16:51:04.476Z,93923.97
2017-07-01T16:53:33.986Z,93934.22
2017-07-01T16:56:03.648Z,93938.45
2017-07-01T16:58:31.826Z,93940.95
2017-07-01T17:01:00.735Z,93942.70
2017-07-01T17:03:29.406Z,93946.29
2017-07-01T17:05:57.469Z,93952.62
2017-07-01T17:08:25.456Z,93959.17
2017-07-01T17:10:53.441Z,93954.06
2017-07-01T17:13:21.536Z,93954.97
2017-07-01T17:15:49.422Z,93958.23
2017-07-01T17:18:17.334Z,93963.52
2017-07-01T17:20:45.161Z,93968.50
2017-07-01T17:23:13.061Z,93959.97
2017-07-01T17:25:40.874Z,93965.75
2017-07-01T17:28:08.806Z,93970.84
2017-07-01T17:30:36.667Z,93971.39
2017-07-01T17:33:04.593Z,93974.80
2017-07-01T17:35:33.155Z,93975.20
2017-07-01T17:38:00.983Z,93981.18
2017-07-01T17:40:28.867Z,93982.02
2017-07-01T17:42:56.712Z,93978.44
2017-07-01T17:45:24.639Z,93980.70
2017-07-01T17:47:52.434Z,93989.05
2017-07-01T17:50:20.960Z,93990.46
2017-07-01T17:52:50.011Z,93981.05
2017-07-01T17:55:18.405Z,93980.39
2017-07-01T17:57:46.172Z,93983.27
2017-07-01T18:00:13.991Z,93982.20
2017-07-01T18:02:41.913Z,93989.05
2017-07-01T18:05:09.779Z,93996.02
2017-07-01T18:07:37.627Z,93996.25
2017-07-01T18:10:05.501Z,93991.39
2017-07-01T18:12:33.321Z,93992.94
2017-07-01T18:15:01.211Z,93998.72
2017-07-01T18:17:29.863Z,94002.24
2017-07-01T18:19:57.805Z,93994.60
2017-07-01T18:22:26.693Z,93999.80
2017-07-01T18:24:54.487Z,93995.63
2017-07-01T18:27:22.314Z,93994.72
2017-07-01T18:29:50.198Z,93994.32
2017-07-01T18:32:17.992Z,94001.43
2017-07-01T18:34:45.777Z,94002.05
2017-07-01T18:37:13.646Z,93997.19
2017-07-01T18:39:41.568Z,93997.38
2017-07-01T18:42:09.428Z,94001.05
2017-07-01T18:44:37.288Z,94003.64
2017-07-01T18:47:05.220Z,94011.05
2017-07-01T18:49:33.473Z,94012.35
2017-07-01T18:52:01.264Z,94011.27
2017-07-01T18:54:29.112Z,94015.80
2017-07-01T18:56:56.924Z,94017.75
2017-07-01T18:59:24.870Z,94017.28
2017-07-01T19:01:52.676Z,94020.84
2017-07-01T19:04:20.493Z,94020.00
2017-07-01T19:06:48.415Z,94027.92
2017-07-01T19:09:16.307Z,94036.22
2017-07-01T19:11:44.103Z,94038.35
2017-07-01T19:14:12.255Z,94040.44
2017-07-01T19:16:40.223Z,94047.16
2017-07-01T19:19:08.065Z,94048.63
2017-07-01T19:21:36.049Z,94049.63
2017-07-01T19:24:04.002Z,94055.04
2017-07-01T19:26:31.899Z,94059.20
2017-07-01T19:28:59.746Z,94069.03
2017-07-01T19:31:27.660Z,94066.52
2017-07-01T19:33:55.724Z,94073.94
2017-07-01T19:36:23.734Z,94074.33
2017-07-01T19:38:52.254Z,94073.36
2017-07-01T19:41:20.171Z,94076.02
2017-07-01T19:43:48.316Z,94075.29
2017-07-01T19:46:16.989Z,94074.39
2017-07-01T19:48:48.025Z,94082.50
2017-07-01T19:51:16.522Z,94085.71
2017-07-01T19:53:44.398Z,94088.02
2017-07-01T19:56:12.464Z,94086.23
2017-07-01T19:58:40.249Z,94083.77
2017-07-01T20:01:08.099Z,94085.86
2017-07-01T20:03:36.209Z,94087.00
2017-07-01T20:06:04.003Z,94086.32
2017-07-01T20:08:31.924Z,94081.48
2017-07-01T20:10:59.795Z,94089.66
2017-07-01T20:13:27.840Z,94088.97
2017-07-01T20:15:55.810Z,94087.02
2017-07-01T20:18:23.837Z,94090.33
2017-07-01T20:20:51.760Z,94086.91
2017-07-01T20:23:20.088Z,94086.53
2017-07-01T20:25:48.277Z,94092.15
2017-07-01T20:28:16.239Z,94091.38
2017-07-01T20:30:44.035Z,94087.19
2017-07-01T20:33:11.944Z,94093.05
2017-07-01T20:35:39.805Z,94089.28
2017-07-01T20:38:07.727Z,94088.98
2017-07-01T20:40:35.979Z,94094.62
2017-07-01T20:43:05.825Z,94093.77
2017-07-01T20:45:33.593Z,94090.59
2017-07-01T20:48:01.548Z,94090.59
2017-07-01T20:50:29.388Z,94089.26
2017-07-01T20:52:57.172Z,94095.48
2017-07-01T20:55:27.883Z,94102.72
2017-07-01T20:57:55.679Z,94095.42
2017-07-01T21:00:23.577Z,94104.70
2017-07-01T21:02:52.637Z,94107.98
2017-07-01T21:05:20.406Z,94109.87
2017-07-01T21:34:09.764Z,94106.08
2017-07-01T21:36:37.674Z,94102.16
2017-07-01T21:39:05.555Z,94098.98
2017-07-01T21:41:33.441Z,94102.28
2017-07-01T21:44:01.256Z,94097.59
2017-07-01T21:46:29.092Z,94102.91
2017-07-01T21:48:57.230Z,94104.34
2017-07-01T21:51:24.990Z,94103.41
2017-07-01T21:53:52.880Z,94102.13
2017-07-01T21:56:21.085Z,94106.47
2017-07-01T21:58:48.945Z,94101.87
2017-07-01T22:01:16.752Z,94109.58
2017-07-01T22:03:45.261Z,94107.63
2017-07-01T22:06:13.120Z,94107.08
2017-07-01T22:08:40.886Z,94105.13
2017-07-01T22:11:09.553Z,94113.26
2017-07-01T22:13:37.426Z,94102.34
2017-07-01T22:16:05.297Z,94096.04
2017-07-01T22:18:33.050Z,94104.59
2017-07-01T22:21:01.093Z,94108.70
2017-07-01T22:23:30.090Z,94108.75
2017-07-01T22:25:58.446Z,94113.08
2017-07-01T22:28:26.325Z,94107.75
2017-07-01T22:30:54.135Z,94113.56
2017-07-01T22:33:22.054Z,94113.14
2017-07-01T22:35:50.013Z,94119.59
2017-07-01T22:38:17.885Z,94125.84
2017-07-01T22:40:47.333Z,94126.76
2017-07-01T22:43:15.351Z,94125.63
2017-07-01T22:45:43.305Z,94127.66
2017-07-01T22:48:12.358Z,94129.83
2017-07-01T22:50:40.327Z,94120.95
2017-07-01T22:53:08.267Z,94124.91
2017-07-01T22:55:36.151Z,94128.73
2017-07-01T22:58:04.145Z,94130.98
2017-07-01T23:00:32.061Z,94137.58
2017-07-01T23:02:59.881Z,94128.39
2017-07-01T23:05:27.737Z,94128.16
2017-07-01T23:07:55.658Z,94128.86
2017-07-01T23:10:24.651Z,94127.09
2017-07-01T23:12:53.389Z,94125.94
2017-07-01T23:15:21.769Z,94125.83
2017-07-01T23:17:49.617Z,94126.33
2017-07-01T23:20:18.523Z,94125.94
2017-07-01T23:22:46.349Z,94121.19
2017-07-01T23:25:14.275Z,94127.39
2017-07-01T23:27:42.144Z,94124.87
2017-07-01T23:30:09.902Z,94127.02
2017-07-01T23:32:37.689Z,94117.11
2017-07-01T23:35:05.589Z,94121.98
2017-07-01T23:37:33.379Z,94123.41
2017-07-01T23:40:02.987Z,94123.30
2017-07-01T23:42:30.791Z,94124.61
2017-07-01T23:44:58.667Z,94123.22
2017-07-01T23:47:26.448Z,94116.03
2017-07-01T23:49:54.265Z,94105.14
2017-07-01T23:52:22.091Z,94109.43
2017-07-01T23:54:49.870Z,94114.59
2017-07-01T23:57:17.763Z,94113.25
2017-07-01T23:59:45.524Z,94117.41
